Philadelphia, PA (19019)

5:43 PM EDT on August 29, 2016 (GMT -0400)
Somerton | | Change Station

Elev 167 ft 40.13 °N, 75.00 °W | Updated 6 minutes ago

Clear
Clear
89.8 °F
Feels Like 89 °F
N
5.8
Wind Variable Wind from SSW

Today
High -- | Low -- °F
--% Chance of Precip.
Yesterday
High -- | Low -- °F
Precip. -- in
Pressure 30.06 in
Visibility 10.0 miles
Clouds Clear
Heat Index 89 °F
Dew Point 59 °F
Humidity 36%
Rainfall 0.00 in
Snow Depth Not available.
6:25 AM 7:35 PM
Waning Crescent, 7% visible
METAR KPNE 292054Z AUTO 34011KT 10SM CLR 34/16 A3007 RMK AO2 SLP180 T03390161 56017 TSNO
Pressure 30.06 in
Visibility 10.0 miles
Clouds Clear
Heat Index 89 °F
Dew Point 59 °F
Humidity 36%
Rainfall 0.00 in
Snow Depth Not available.
6:25 AM 7:35 PM
Waning Crescent, 7% visible
METAR KPNE 292054Z AUTO 34011KT 10SM CLR 34/16 A3007 RMK AO2 SLP180 T03390161 56017 TSNO

10-Day Weather Forecast

Almanac

Astronomy

Aug. 29, 2016 Rise Set
Actual Time
Civil Twilight
Nautical Twilight
Astronomical Twilight
Moon
Length of Visible Light
Length of Day
Tomorrow will be .
, % of the Moon is Illuminated

Today's Extremes

State Highs State Lows

Community

WunderPhotos

Upload Photos

1,935,690 photos uploaded!

WunderBlog® & News

Nearby

Air Quality

  Air Quality AQ Index Pollutant
Not available.

Snow Depth

Station Depth Elevation

Earthquake Activity

City Distance Mag. Time & Date
Minimum magnitude displayed is 2.5.

Coastal Water Temperatures

Place Temperature

Stations

Nearby Weather Stations

Station Location Temp. Windchill Dew Point Humidity Wind Precip. Elev Updated Type
                   

Watches & Warnings

There are currently no watches in effect.